Time;durP1;ratioP1;P1;durP2;ratioP2;P2;SDS_P1;SDS_P2;PMS_P1;PMS_P2;Temp;Humidity;BMP_temperature;BMP_pressure;BME280_temperature;BME280_humidity;BME280_pressure;Samples;Min_cycle;Max_cycle;Signal;HPM_P1;HPM_P2
2022/12/01 00:00:55;;;;;;;8.43;3.75;;;8.60;99.90;;;;;;5014710;28;20109;-67
2022/12/01 00:03:21;;;;;;;8.57;3.80;;;8.60;99.90;;;;;;5014338;28;20100;-67
2022/12/01 00:05:46;;;;;;;9.23;3.83;;;8.60;99.90;;;;;;5014845;28;20034;-67
2022/12/01 00:08:12;;;;;;;11.75;3.42;;;8.60;99.90;;;;;;5014315;28;20084;-68
2022/12/01 00:10:38;;;;;;;10.38;3.53;;;8.60;99.90;;;;;;5014202;28;20030;-67
2022/12/01 00:13:05;;;;;;;6.50;3.28;;;8.60;99.90;;;;;;5013042;28;20022;-67
2022/12/01 00:15:35;;;;;;;6.80;3.38;;;8.60;99.90;;;;;;5013251;28;20029;-67
2022/12/01 00:18:04;;;;;;;7.18;2.95;;;8.60;99.90;;;;;;5013146;28;20029;-68
2022/12/01 00:20:33;;;;;;;6.95;2.88;;;8.60;99.90;;;;;;5014040;28;20021;-68
2022/12/01 00:22:59;;;;;;;5.63;3.03;;;8.70;99.90;;;;;;5012671;28;20022;-67
2022/12/01 00:25:25;;;;;;;5.03;2.95;;;8.70;99.90;;;;;;5013927;28;20033;-68
2022/12/01 00:27:52;;;;;;;5.70;3.10;;;8.70;99.90;;;;;;5012965;28;20061;-68
2022/12/01 00:30:19;;;;;;;7.45;3.58;;;8.80;99.90;;;;;;5013031;28;20049;-68
2022/12/01 00:32:45;;;;;;;6.00;3.55;;;8.70;99.90;;;;;;5012676;28;20113;-67
2022/12/01 00:35:11;;;;;;;6.57;2.55;;;8.80;99.90;;;;;;5012620;28;20053;-67
2022/12/01 00:37:37;;;;;;;4.35;2.78;;;8.60;99.90;;;;;;5012390;28;20021;-67
2022/12/01 00:40:04;;;;;;;6.15;3.15;;;8.60;99.90;;;;;;5012812;28;20045;-67
2022/12/01 00:42:30;;;;;;;4.85;2.60;;;8.60;99.90;;;;;;5012792;28;20037;-67
2022/12/01 00:44:55;;;;;;;8.15;3.83;;;8.70;99.90;;;;;;5012366;28;20030;-68
2022/12/01 00:47:21;;;;;;;7.70;3.60;;;8.70;99.90;;;;;;5012378;28;20014;-68
2022/12/01 00:49:46;;;;;;;12.20;4.88;;;8.70;99.90;;;;;;5012509;28;20018;-68
2022/12/01 00:52:14;;;;;;;9.05;4.50;;;8.70;99.90;;;;;;5013930;28;20018;-68
2022/12/01 00:54:39;;;;;;;13.27;5.40;;;8.60;99.90;;;;;;5013649;28;20030;-67
2022/12/01 00:57:05;;;;;;;11.70;4.65;;;8.60;99.90;;;;;;5013856;28;20026;-67
2022/12/01 00:59:31;;;;;;;13.13;5.65;;;8.60;99.90;;;;;;5012195;28;20033;-67
2022/12/01 01:01:56;;;;;;;15.52;6.05;;;8.60;99.90;;;;;;5013519;28;20022;-67
2022/12/01 01:04:22;;;;;;;19.42;6.55;;;8.60;99.90;;;;;;5013487;28;20032;-67
2022/12/01 01:06:48;;;;;;;16.40;7.55;;;8.60;99.90;;;;;;5013678;28;20076;-67
2022/12/01 01:09:14;;;;;;;16.15;7.72;;;8.50;99.90;;;;;;5016507;28;20022;-67
2022/12/01 01:11:40;;;;;;;19.52;7.55;;;8.60;99.90;;;;;;5017101;28;20025;-67
2022/12/01 01:14:06;;;;;;;18.10;6.85;;;8.60;99.90;;;;;;5016178;28;20029;-67
2022/12/01 01:16:32;;;;;;;18.85;7.22;;;8.60;99.90;;;;;;5016477;28;20026;-67
2022/12/01 01:18:58;;;;;;;14.52;6.88;;;8.60;99.90;;;;;;5016343;28;20093;-67
2022/12/01 01:21:25;;;;;;;16.75;6.47;;;8.50;99.90;;;;;;5017411;28;20109;-67
2022/12/01 01:24:39;;;;;;;11.23;6.85;;;8.50;99.90;;;;;;5017474;28;20061;-67
2022/12/01 01:27:05;;;;;;;18.65;6.97;;;8.50;99.90;;;;;;5017570;28;20066;-67
2022/12/01 01:29:31;;;;;;;18.20;7.15;;;8.50;99.90;;;;;;5017231;28;20029;-67
2022/12/01 01:31:56;;;;;;;27.35;9.20;;;8.60;99.90;;;;;;5016499;28;20033;-67
2022/12/01 01:34:22;;;;;;;19.10;8.05;;;8.50;99.90;;;;;;5015870;28;20045;-67
2022/12/01 01:36:48;;;;;;;27.08;9.98;;;8.50;99.90;;;;;;5017130;28;20549;-67
2022/12/01 01:39:13;;;;;;;27.13;10.45;;;8.50;99.90;;;;;;5015715;28;20030;-67
2022/12/01 01:41:39;;;;;;;25.05;11.15;;;8.50;99.90;;;;;;5017245;28;20105;-67
2022/12/01 01:44:43;;;;;;;27.27;11.70;;;8.50;99.90;;;;;;5017176;28;20030;-67
2022/12/01 01:47:09;;;;;;;30.50;11.48;;;8.50;99.90;;;;;;5016838;28;20096;-67
2022/12/01 01:49:34;;;;;;;31.83;11.93;;;8.50;99.90;;;;;;5015559;28;20061;-67
2022/12/01 01:52:03;;;;;;;33.25;12.75;;;8.60;99.90;;;;;;5015556;28;20049;-67
2022/12/01 01:54:42;;;;;;;33.17;12.00;;;8.60;99.90;;;;;;5016613;28;20028;-68
2022/12/01 01:57:10;;;;;;;33.00;13.15;;;8.60;99.90;;;;;;5017310;28;20025;-67
2022/12/01 01:59:44;;;;;;;35.22;14.20;;;8.70;99.90;;;;;;5015311;28;20061;-67
2022/12/01 02:02:11;;;;;;;30.95;12.05;;;8.60;99.90;;;;;;5016618;28;20034;-67
2022/12/01 02:04:50;;;;;;;29.05;12.57;;;8.60;99.90;;;;;;5015264;28;20400;-67
2022/12/01 02:07:18;;;;;;;31.15;13.20;;;8.60;99.90;;;;;;5015707;28;20030;-67
2022/12/01 02:09:44;;;;;;;34.47;13.77;;;8.60;99.90;;;;;;5016088;28;20030;-68
2022/12/01 02:12:48;;;;;;;37.40;12.55;;;8.50;99.90;;;;;;5016416;28;20022;-68
2022/12/01 02:15:32;;;;;;;37.05;13.18;;;8.50;99.90;;;;;;5015480;28;20021;-68
2022/12/01 02:18:32;;;;;;;36.05;13.73;;;8.50;99.90;;;;;;5016495;28;20030;-68
2022/12/01 02:21:18;;;;;;;37.63;14.05;;;8.40;99.90;;;;;;5014617;28;20028;-68
2022/12/01 02:24:13;;;;;;;40.83;14.32;;;8.40;99.90;;;;;;5015753;28;20026;-68
2022/12/01 02:27:00;;;;;;;38.47;14.30;;;8.40;99.90;;;;;;4979862;28;20030;-68
2022/12/01 02:29:37;;;;;;;37.47;14.23;;;8.40;99.90;;;;;;5014861;28;20491;-68
2022/12/01 02:32:22;;;;;;;36.70;14.95;;;8.40;99.90;;;;;;5014850;28;20030;-68
2022/12/01 02:35:11;;;;;;;35.35;13.85;;;8.40;99.90;;;;;;5014659;28;20469;-68
2022/12/01 02:37:46;;;;;;;40.58;15.23;;;8.50;99.90;;;;;;5014644;28;20029;-68
2022/12/01 02:40:15;;;;;;;39.38;14.27;;;8.50;99.90;;;;;;5016235;28;20053;-68
2022/12/01 02:43:01;;;;;;;37.60;14.48;;;8.50;99.90;;;;;;5014691;28;20018;-68
2022/12/01 02:45:39;;;;;;;37.50;14.57;;;8.40;99.90;;;;;;5016850;28;20038;-68
2022/12/01 02:48:13;;;;;;;37.17;14.80;;;8.40;99.90;;;;;;5015333;28;20057;-67
2022/12/01 02:50:40;;;;;;;37.00;15.13;;;8.40;99.90;;;;;;5014551;28;20021;-67
2022/12/01 02:53:09;;;;;;;39.10;14.57;;;8.30;99.90;;;;;;5016173;28;20018;-67
2022/12/01 02:55:35;;;;;;;38.15;16.15;;;8.40;99.90;;;;;;5014266;28;20034;-68
2022/12/01 02:58:00;;;;;;;41.00;16.17;;;8.30;99.90;;;;;;5015764;28;20022;-70
2022/12/01 03:00:29;;;;;;;39.28;15.55;;;8.30;99.90;;;;;;5014472;28;20022;-70
2022/12/01 03:03:20;;;;;;;38.28;15.30;;;8.20;99.90;;;;;;5014256;28;20091;-70
2022/12/01 03:06:07;;;;;;;39.00;15.52;;;8.20;99.90;;;;;;5015361;28;20018;-70
2022/12/01 03:08:51;;;;;;;40.17;15.32;;;8.30;99.90;;;;;;5014140;28;20108;-70
2022/12/01 03:11:27;;;;;;;40.35;14.75;;;8.20;99.90;;;;;;5015976;28;20022;-70
2022/12/01 03:14:14;;;;;;;45.78;16.63;;;8.20;99.90;;;;;;5014615;28;20029;-70
2022/12/01 03:16:51;;;;;;;41.35;15.50;;;8.20;99.90;;;;;;5015567;28;20026;-70
2022/12/01 03:19:40;;;;;;;44.75;15.48;;;8.20;99.90;;;;;;5013828;28;20061;-70
2022/12/01 03:22:23;;;;;;;39.90;15.50;;;8.10;99.90;;;;;;5015197;28;20072;-70
2022/12/01 03:24:52;;;;;;;45.03;16.15;;;8.10;99.90;;;;;;5014992;28;20072;-70
2022/12/01 03:27:25;;;;;;;43.45;16.98;;;7.90;99.90;;;;;;5014958;28;20029;-70
2022/12/01 03:29:54;;;;;;;44.33;16.20;;;8.00;99.90;;;;;;5014943;28;20037;-70
2022/12/01 03:32:34;;;;;;;45.17;15.45;;;8.00;99.90;;;;;;5014601;28;20072;-70
2022/12/01 03:35:05;;;;;;;43.33;17.08;;;8.00;99.90;;;;;;5014804;28;20033;-70
2022/12/01 03:37:38;;;;;;;42.88;17.13;;;7.90;99.90;;;;;;5014760;28;20101;-70
2022/12/01 03:40:10;;;;;;;43.75;16.45;;;7.90;99.90;;;;;;5015189;28;20054;-70
2022/12/01 03:42:41;;;;;;;43.85;17.08;;;8.00;99.90;;;;;;5014838;28;20026;-70
2022/12/01 03:45:13;;;;;;;50.43;16.67;;;8.10;99.90;;;;;;5013491;28;20029;-70
2022/12/01 03:47:39;;;;;;;51.83;17.20;;;8.20;99.90;;;;;;5013447;28;20026;-70
2022/12/01 03:50:10;;;;;;;42.83;16.60;;;8.10;99.90;;;;;;5014932;28;20022;-70
2022/12/01 03:53:07;;;;;;;43.88;17.42;;;8.00;99.90;;;;;;5015169;28;20018;-70
2022/12/01 03:55:41;;;;;;;45.03;17.42;;;8.10;99.90;;;;;;5013377;28;20022;-69
2022/12/01 03:58:13;;;;;;;44.70;17.08;;;8.20;99.90;;;;;;5013191;28;20030;-70
2022/12/01 04:00:39;;;;;;;47.08;17.00;;;8.20;99.90;;;;;;5013827;28;20017;-70
2022/12/01 04:03:05;;;;;;;41.25;16.48;;;8.20;99.90;;;;;;5014436;28;20025;-70
2022/12/01 04:05:33;;;;;;;54.35;17.77;;;8.10;99.90;;;;;;5014654;28;20022;-70
2022/12/01 04:07:59;;;;;;;47.03;17.80;;;8.20;99.90;;;;;;5014290;28;20061;-70
2022/12/01 04:10:25;;;;;;;47.25;16.92;;;8.20;99.90;;;;;;5013809;28;20500;-70
2022/12/01 04:12:57;;;;;;;47.60;17.85;;;8.30;99.90;;;;;;5012973;28;20036;-70
2022/12/01 04:15:23;;;;;;;;;;;8.30;99.90;;;;;;5014729;28;20014;-70
2022/12/01 04:17:49;;;;;;;42.67;16.55;;;8.20;99.90;;;;;;5014012;28;19965;-70
2022/12/01 04:20:15;;;;;;;39.17;15.38;;;8.20;99.90;;;;;;5014101;28;20029;-70
2022/12/01 04:22:41;;;;;;;51.10;17.58;;;8.30;99.90;;;;;;5014372;28;20025;-70
2022/12/01 04:25:07;;;;;;;47.00;17.13;;;8.30;99.90;;;;;;5013999;28;20100;-70
2022/12/01 04:27:33;;;;;;;46.38;16.83;;;8.20;99.90;;;;;;5012661;28;20018;-70
2022/12/01 04:29:59;;;;;;;43.88;17.30;;;8.30;99.90;;;;;;5013919;28;20028;-70
2022/12/01 04:32:24;;;;;;;49.80;18.10;;;8.20;99.90;;;;;;5012718;28;20028;-70
2022/12/01 04:34:50;;;;;;;49.13;18.55;;;8.20;99.90;;;;;;5013797;28;20030;-70
2022/12/01 04:37:16;;;;;;;48.08;18.48;;;8.10;99.90;;;;;;5013240;28;20044;-70
2022/12/01 04:39:42;;;;;;;53.08;20.02;;;8.10;99.90;;;;;;5014000;28;20025;-70
2022/12/01 04:42:08;;;;;;;52.45;19.13;;;8.10;99.90;;;;;;5012412;28;20022;-70
2022/12/01 04:44:34;;;;;;;49.10;17.92;;;8.20;99.90;;;;;;5012308;28;20026;-70
2022/12/01 04:47:00;;;;;;;51.97;18.23;;;8.10;99.90;;;;;;5013739;28;20030;-70
2022/12/01 04:49:26;;;;;;;46.85;18.33;;;8.10;99.90;;;;;;5012435;28;20033;-70
2022/12/01 04:51:52;;;;;;;46.05;17.48;;;8.10;99.90;;;;;;5012436;28;20026;-70
2022/12/01 04:54:17;;;;;;;46.08;17.42;;;8.10;99.90;;;;;;5012393;28;20026;-70
2022/12/01 04:56:43;;;;;;;51.08;18.80;;;8.10;99.90;;;;;;5012683;28;20075;-70
2022/12/01 04:59:09;;;;;;;47.80;17.75;;;8.10;99.90;;;;;;5013572;28;20032;-70
2022/12/01 05:01:34;;;;;;;49.13;19.05;;;8.10;99.90;;;;;;5013630;28;20485;-70
2022/12/01 05:04:00;;;;;;;54.88;18.67;;;8.10;99.90;;;;;;5012214;28;20026;-70
2022/12/01 05:06:27;;;;;;;51.75;18.42;;;8.10;99.90;;;;;;5013540;28;20018;-70
2022/12/01 05:08:58;;;;;;;53.60;17.90;;;8.10;99.90;;;;;;5012097;28;20026;-70
2022/12/01 05:11:25;;;;;;;50.17;18.45;;;8.10;99.90;;;;;;5013745;28;20034;-70
2022/12/01 05:13:51;;;;;;;49.15;18.33;;;8.00;99.90;;;;;;5013650;28;20038;-70
2022/12/01 05:16:28;;;;;;;53.30;19.08;;;8.10;99.90;;;;;;5012222;28;20036;-70
2022/12/01 05:21:43;;;;;;;56.05;19.90;;;8.00;99.90;;;;;;5014026;28;20037;-70
2022/12/01 05:24:10;;;;;;;53.30;18.48;;;8.00;99.90;;;;;;5013312;28;20018;-69
2022/12/01 05:26:36;;;;;;;44.15;18.98;;;8.00;99.90;;;;;;5012401;28;20029;-70
2022/12/01 05:29:01;;;;;;;49.30;18.48;;;7.80;99.90;;;;;;5013592;28;20029;-70
2022/12/01 05:31:27;;;;;;;49.20;17.55;;;7.80;99.90;;;;;;5013307;28;20030;-70
2022/12/01 05:33:52;;;;;;;49.40;18.10;;;7.80;99.90;;;;;;5013220;28;20080;-69
2022/12/01 05:36:18;;;;;;;49.67;16.30;;;7.70;99.90;;;;;;5013503;28;20029;-70
2022/12/01 05:38:43;;;;;;;47.97;18.27;;;7.50;99.90;;;;;;5013180;28;20065;-70
2022/12/01 05:41:09;;;;;;;48.35;16.95;;;7.50;99.90;;;;;;5013429;28;20022;-70
2022/12/01 05:43:35;;;;;;;51.03;18.83;;;7.40;99.90;;;;;;5012033;28;20033;-69
2022/12/01 05:46:02;;;;;;;54.55;18.15;;;7.50;99.90;;;;;;5037428;22;20037;-66
2022/12/01 05:48:27;;;;;;;54.30;18.83;;;7.40;99.90;;;;;;5028447;28;20022;-66
2022/12/01 05:50:53;;;;;;;52.35;18.63;;;7.30;99.90;;;;;;5012994;28;20100;-66
2022/12/01 05:53:19;;;;;;;49.05;18.60;;;7.20;99.90;;;;;;5013302;28;20053;-66
2022/12/01 05:55:45;;;;;;;57.60;19.13;;;7.30;99.90;;;;;;5031686;28;20453;-66
2022/12/01 05:58:11;;;;;;;52.88;17.88;;;7.30;99.90;;;;;;5032178;28;20129;-66
2022/12/01 06:00:37;;;;;;;54.67;19.88;;;7.10;99.90;;;;;;5031877;28;20032;-66
2022/12/01 06:03:03;;;;;;;57.45;17.55;;;7.10;99.90;;;;;;5032983;28;20117;-66
2022/12/01 06:05:29;;;;;;;52.10;17.05;;;7.10;99.90;;;;;;5016395;28;20116;-66
2022/12/01 06:07:54;;;;;;;53.97;18.02;;;7.10;99.90;;;;;;5031731;28;20026;-66
2022/12/01 06:10:20;;;;;;;56.75;18.77;;;7.00;99.90;;;;;;5016509;28;20091;-66
2022/12/01 06:12:46;;;;;;;55.83;17.55;;;7.00;99.90;;;;;;5016493;28;20042;-66
2022/12/01 06:15:12;;;;;;;53.05;17.85;;;7.00;99.90;;;;;;5016314;28;20028;-66
2022/12/01 06:17:38;;;;;;;53.42;18.38;;;7.00;99.90;;;;;;5016150;28;20120;-66
2022/12/01 06:20:04;;;;;;;47.83;17.95;;;7.20;99.90;;;;;;5031561;28;20133;-66
2022/12/01 06:22:30;;;;;;;57.97;20.27;;;7.40;99.90;;;;;;5016515;28;20026;-66
2022/12/01 06:24:55;;;;;;;50.95;19.60;;;7.40;99.90;;;;;;5031358;28;20022;-66
2022/12/01 06:27:21;;;;;;;51.78;18.05;;;7.30;99.90;;;;;;5031382;28;20049;-66
2022/12/01 06:29:48;;;;;;;55.85;18.75;;;7.20;99.90;;;;;;5016082;28;20061;-66
2022/12/01 06:32:14;;;;;;;59.42;20.98;;;7.10;99.90;;;;;;5016393;28;20025;-66
2022/12/01 06:34:39;;;;;;;55.00;19.02;;;7.00;99.90;;;;;;5015823;28;20026;-66
2022/12/01 06:37:05;;;;;;;54.78;18.48;;;7.00;99.90;;;;;;5016077;28;20034;-66
2022/12/01 06:39:30;;;;;;;55.63;20.33;;;6.90;99.90;;;;;;5014725;28;20117;-66
2022/12/01 06:41:56;;;;;;;58.42;19.15;;;6.90;99.90;;;;;;5014702;28;20064;-66
2022/12/01 06:44:22;;;;;;;57.50;18.67;;;6.80;99.90;;;;;;5014387;28;20064;-66
2022/12/01 06:46:51;;;;;;;58.00;18.23;;;6.90;99.90;;;;;;5014555;28;20033;-66
2022/12/01 06:49:18;;;;;;;52.75;19.33;;;7.00;99.90;;;;;;5014494;28;20095;-66
2022/12/01 06:51:44;;;;;;;59.65;19.65;;;7.00;99.90;;;;;;5015664;28;20037;-66
2022/12/01 06:54:11;;;;;;;53.30;18.83;;;6.80;99.90;;;;;;5015856;28;20022;-66
2022/12/01 06:56:37;;;;;;;47.97;17.35;;;6.70;99.90;;;;;;5014385;28;20026;-66
2022/12/01 06:59:02;;;;;;;51.45;17.92;;;6.60;99.90;;;;;;5014565;28;20026;-66
2022/12/01 07:01:28;;;;;;;55.17;18.58;;;6.60;99.90;;;;;;5015410;28;20089;-66
2022/12/01 07:03:53;;;;;;;51.25;18.33;;;6.60;99.90;;;;;;5015436;28;20030;-66
2022/12/01 07:06:19;;;;;;;57.53;17.83;;;6.70;99.90;;;;;;5015037;28;20022;-66
2022/12/01 07:08:45;;;;;;;51.40;17.90;;;6.80;99.90;;;;;;5014141;28;20068;-66
2022/12/01 07:11:13;;;;;;;47.95;18.92;;;6.70;99.90;;;;;;5014699;28;20072;-66
2022/12/01 07:13:39;;;;;;;49.22;18.50;;;6.60;99.90;;;;;;5014023;28;20080;-66
2022/12/01 07:16:06;;;;;;;58.67;19.23;;;6.50;99.90;;;;;;5014233;28;20032;-66
2022/12/01 07:18:33;;;;;;;53.95;18.17;;;6.70;99.90;;;;;;5014131;28;20029;-66
2022/12/01 07:21:00;;;;;;;53.88;18.45;;;6.80;99.90;;;;;;5013884;28;20061;-66
2022/12/01 07:23:26;;;;;;;53.40;16.67;;;6.80;99.90;;;;;;5014167;28;20026;-66
2022/12/01 07:26:11;;;;;;;55.85;18.90;;;6.70;99.90;;;;;;5015016;28;20033;-66
2022/12/01 07:28:36;;;;;;;42.72;18.02;;;6.80;99.90;;;;;;5014397;28;20073;-66
2022/12/01 07:31:06;;;;;;;48.47;18.38;;;6.90;99.90;;;;;;5014988;28;20065;-66
2022/12/01 07:33:32;;;;;;;45.53;16.33;;;6.80;99.90;;;;;;5015175;28;20022;-66
2022/12/01 07:35:58;;;;;;;53.10;18.00;;;6.70;99.90;;;;;;5014808;28;20030;-66
2022/12/01 07:38:25;;;;;;;47.55;16.65;;;6.60;99.90;;;;;;5013539;28;20025;-66
2022/12/01 07:40:51;;;;;;;46.85;15.70;;;6.80;99.90;;;;;;5015156;28;20034;-66
2022/12/01 07:43:17;;;;;;;43.22;16.38;;;6.80;99.90;;;;;;5014052;28;20072;-66
2022/12/01 07:45:42;;;;;;;39.17;15.68;;;6.80;99.90;;;;;;5013387;28;20033;-66
2022/12/01 07:48:08;;;;;;;39.40;14.80;;;6.70;99.90;;;;;;5013457;28;20396;-66
2022/12/01 07:50:33;;;;;;;40.75;15.30;;;6.60;99.90;;;;;;5013494;28;20040;-66
2022/12/01 07:52:59;;;;;;;43.10;16.42;;;6.60;99.90;;;;;;5013417;28;20026;-66
2022/12/01 07:55:24;;;;;;;39.35;15.80;;;6.50;99.90;;;;;;5014579;28;20030;-66
2022/12/01 07:57:50;;;;;;;41.58;14.35;;;6.50;99.90;;;;;;5013184;28;20026;-66
2022/12/01 08:00:15;;;;;;;35.50;14.35;;;6.40;99.90;;;;;;5013231;28;20022;-66
2022/12/01 08:02:41;;;;;;;38.67;13.93;;;6.40;99.90;;;;;;5013122;28;20030;-66
2022/12/01 08:05:49;;;;;;;39.83;14.55;;;6.40;99.90;;;;;;5014566;28;20033;-66
2022/12/01 08:08:15;;;;;;;41.17;15.45;;;6.40;99.90;;;;;;5014551;28;20022;-66
2022/12/01 08:10:40;;;;;;;35.88;14.77;;;6.40;99.90;;;;;;5013122;28;20033;-66
2022/12/01 08:13:06;;;;;;;41.25;15.52;;;6.40;99.90;;;;;;5014302;28;20033;-66
2022/12/01 08:15:31;;;;;;;38.28;14.50;;;6.30;99.90;;;;;;5012860;28;20116;-66
2022/12/01 08:18:00;;;;;;;36.22;14.18;;;6.30;99.90;;;;;;5012826;28;20018;-66
2022/12/01 08:20:25;;;;;;;35.90;13.57;;;6.20;99.90;;;;;;5014149;28;20097;-66
2022/12/01 08:22:51;;;;;;;34.67;13.05;;;6.20;99.90;;;;;;5013680;28;20057;-66
2022/12/01 08:25:16;;;;;;;37.92;13.90;;;6.20;99.90;;;;;;5014040;28;20046;-66
2022/12/01 08:27:42;;;;;;;35.45;13.07;;;6.30;99.90;;;;;;5012751;28;20401;-66
2022/12/01 08:30:08;;;;;;;37.80;12.90;;;6.30;99.90;;;;;;5012813;28;20029;-66
2022/12/01 08:32:33;;;;;;;32.30;13.55;;;6.20;99.90;;;;;;5014177;28;20080;-66
2022/12/01 08:34:59;;;;;;;36.92;14.50;;;6.20;99.90;;;;;;5012557;28;20022;-66
2022/12/01 08:37:24;;;;;;;34.33;14.25;;;6.40;99.90;;;;;;5012831;28;20026;-66
2022/12/01 08:39:50;;;;;;;38.53;15.07;;;6.30;99.90;;;;;;5013704;28;20057;-66
2022/12/01 08:42:16;;;;;;;35.53;14.38;;;6.40;99.90;;;;;;5012695;28;20024;-66
2022/12/01 08:44:41;;;;;;;38.13;15.07;;;6.60;99.90;;;;;;5013763;28;20041;-66
2022/12/01 08:47:07;;;;;;;37.83;13.30;;;6.60;99.90;;;;;;5012876;28;20139;-66
2022/12/01 08:49:32;;;;;;;30.98;12.88;;;6.60;99.90;;;;;;5013379;28;20140;-66
2022/12/01 08:51:58;;;;;;;42.17;14.02;;;6.40;99.90;;;;;;5012461;28;20026;-66
2022/12/01 08:54:23;;;;;;;34.30;14.07;;;6.40;99.90;;;;;;5013428;28;20022;-66
2022/12/01 08:56:49;;;;;;;35.83;12.13;;;6.40;99.90;;;;;;5012681;28;20025;-66
2022/12/01 08:59:14;;;;;;;32.75;12.68;;;6.30;99.90;;;;;;5013138;28;20034;-66
2022/12/01 09:01:52;;;;;;;33.15;12.30;;;6.20;99.90;;;;;;5013186;28;20028;-66
2022/12/01 09:04:19;;;;;;;30.00;12.45;;;6.30;99.90;;;;;;5013472;28;20022;-66
2022/12/01 09:06:47;;;;;;;30.55;11.82;;;6.30;99.90;;;;;;5013550;28;20076;-66
2022/12/01 09:09:15;;;;;;;29.00;11.73;;;6.30;99.90;;;;;;5012313;28;20442;-66
2022/12/01 09:11:42;;;;;;;29.83;12.18;;;6.10;99.90;;;;;;5013450;28;20022;-66
2022/12/01 09:14:08;;;;;;;29.92;11.50;;;6.10;99.90;;;;;;5012539;28;20026;-66
2022/12/01 09:16:34;;;;;;;27.40;11.57;;;6.20;99.90;;;;;;5012453;28;20112;-66
2022/12/01 09:18:59;;;;;;;29.70;10.75;;;6.20;99.90;;;;;;5013954;28;20098;-66
2022/12/01 09:21:29;;;;;;;28.98;11.50;;;6.10;99.90;;;;;;5012213;28;20022;-66
2022/12/01 09:23:55;;;;;;;27.77;11.35;;;6.20;99.90;;;;;;5012141;28;20076;-66
2022/12/01 09:26:22;;;;;;;28.17;11.10;;;6.20;99.90;;;;;;5012099;28;20080;-66
2022/12/01 09:29:00;;;;;;;25.77;10.18;;;6.10;99.90;;;;;;5012610;28;20030;-67
2022/12/01 09:31:26;;;;;;;25.98;10.65;;;6.00;99.90;;;;;;5017306;28;20022;-67
2022/12/01 09:34:00;;;;;;;24.33;10.20;;;5.90;99.90;;;;;;5017526;28;20036;-66
2022/12/01 09:36:26;;;;;;;28.95;11.70;;;5.80;99.90;;;;;;5016018;28;20032;-65
2022/12/01 09:38:52;;;;;;;32.85;12.35;;;5.80;99.90;;;;;;5017154;28;20033;-65
2022/12/01 09:41:25;;;;;;;26.65;10.57;;;5.80;99.90;;;;;;5017149;28;20018;-66
2022/12/01 09:44:13;;;;;;;27.85;11.25;;;5.90;99.90;;;;;;5016994;28;20033;-66
2022/12/01 09:47:13;;;;;;;28.23;12.27;;;5.90;99.90;;;;;;5015741;28;20029;-65
2022/12/01 09:49:47;;;;;;;28.33;11.55;;;6.00;99.90;;;;;;4959742;28;20035;-65
2022/12/01 09:52:16;;;;;;;30.55;11.50;;;6.00;99.90;;;;;;4975785;28;20041;-65
2022/12/01 09:54:42;;;;;;;30.55;11.90;;;6.20;99.90;;;;;;4959808;28;20042;-65
2022/12/01 09:57:31;;;;;;;28.25;11.40;;;6.20;99.90;;;;;;4960070;28;20109;-65
2022/12/01 09:59:59;;;;;;;29.80;11.68;;;6.20;99.90;;;;;;4959524;28;20105;-65
2022/12/01 10:02:32;;;;;;;27.58;11.27;;;6.30;99.90;;;;;;4959439;28;20023;-66
2022/12/01 10:05:01;;;;;;;29.23;11.95;;;6.30;99.90;;;;;;4959333;28;20074;-66
2022/12/01 10:07:32;;;;;;;34.00;12.88;;;6.20;99.90;;;;;;4959414;28;20031;-66
2022/12/01 10:10:03;;;;;;;35.22;12.95;;;6.20;99.90;;;;;;4975519;28;20034;-66
2022/12/01 10:12:32;;;;;;;32.55;12.48;;;6.20;99.90;;;;;;4959369;28;20030;-66
2022/12/01 10:15:19;;;;;;;35.15;13.15;;;6.30;99.90;;;;;;4959165;28;20023;-66
2022/12/01 10:17:59;;;;;;;29.33;11.77;;;6.30;99.90;;;;;;4975450;28;20026;-66
2022/12/01 10:20:35;;;;;;;28.67;13.05;;;6.20;99.90;;;;;;4975372;28;20027;-66
2022/12/01 10:23:41;;;;;;;34.00;14.25;;;6.20;99.90;;;;;;4975394;28;20073;-66
2022/12/01 10:26:27;;;;;;;34.95;12.80;;;6.30;99.90;;;;;;5008825;28;20069;-66
2022/12/01 10:28:58;;;;;;;30.63;12.10;;;6.40;99.90;;;;;;5014997;28;20026;-66
2022/12/01 10:31:40;;;;;;;32.50;13.35;;;6.50;99.90;;;;;;5015282;28;20076;-66
2022/12/01 10:34:09;;;;;;;;;;;6.60;99.90;;;;;;5016773;28;20101;-66
2022/12/01 10:36:35;;;;;;;32.50;12.27;;;6.40;99.90;;;;;;5031642;28;19912;-66
2022/12/01 10:39:05;;;;;;;32.97;12.60;;;6.40;99.90;;;;;;5015203;28;20033;-66
2022/12/01 10:41:35;;;;;;;30.98;12.32;;;6.40;99.90;;;;;;5013520;28;20026;-66
2022/12/01 10:44:04;;;;;;;35.85;13.05;;;6.30;99.90;;;;;;5014958;28;20021;-66
2022/12/01 10:46:50;;;;;;;30.95;12.80;;;6.50;99.90;;;;;;5015356;28;20084;-66
2022/12/01 10:49:17;;;;;;;30.50;12.88;;;6.70;99.90;;;;;;5014512;28;20022;-66
2022/12/01 10:51:51;;;;;;;35.35;14.13;;;6.70;99.90;;;;;;5015302;28;20080;-66
2022/12/01 10:54:17;;;;;;;32.47;12.88;;;6.60;99.90;;;;;;5015928;28;20054;-66
2022/12/01 10:56:46;;;;;;;31.20;13.63;;;6.60;99.90;;;;;;5015546;28;20030;-66
2022/12/01 10:59:26;;;;;;;32.92;14.48;;;6.70;99.90;;;;;;5014225;28;20032;-66
2022/12/01 11:01:53;;;;;;;32.28;12.57;;;6.80;99.90;;;;;;5015176;28;20049;-66
2022/12/01 11:04:32;;;;;;;32.08;12.55;;;6.60;99.90;;;;;;5015147;28;20032;-66
2022/12/01 11:06:57;;;;;;;29.30;12.35;;;6.70;99.90;;;;;;5014212;28;20026;-66
2022/12/01 11:09:26;;;;;;;31.20;14.15;;;6.70;99.90;;;;;;5015671;28;20026;-66
2022/12/01 11:12:00;;;;;;;36.33;13.23;;;6.80;99.90;;;;;;5014398;28;20041;-66
2022/12/01 11:14:39;;;;;;;28.63;12.38;;;7.00;99.90;;;;;;5014014;28;20076;-66
2022/12/01 11:17:26;;;;;;;29.75;11.70;;;6.90;99.90;;;;;;5015634;28;20052;-66
2022/12/01 11:19:51;;;;;;;30.02;11.95;;;6.60;99.90;;;;;;5015053;28;20484;-66
2022/12/01 11:22:26;;;;;;;30.33;12.77;;;6.40;99.90;;;;;;5014056;28;20045;-66
2022/12/01 11:24:51;;;;;;;26.50;11.35;;;6.60;99.90;;;;;;5014106;28;20025;-66
2022/12/01 11:27:20;;;;;;;25.95;10.63;;;6.60;99.90;;;;;;5014917;28;20026;-66
2022/12/01 11:29:48;;;;;;;28.55;10.50;;;6.60;99.90;;;;;;5013868;28;20109;-66
2022/12/01 11:32:27;;;;;;;26.38;10.38;;;6.70;99.90;;;;;;5014913;28;20029;-66
2022/12/01 11:34:59;;;;;;;27.25;10.23;;;7.00;99.90;;;;;;5015200;28;20030;-66
2022/12/01 11:37:42;;;;;;;26.08;10.63;;;6.80;99.90;;;;;;5013591;28;20488;-66
2022/12/01 11:40:20;;;;;;;25.13;10.32;;;6.70;99.90;;;;;;5013616;28;20084;-66
2022/12/01 11:43:01;;;;;;;26.65;11.35;;;6.60;99.90;;;;;;5013549;28;20026;-66
2022/12/01 11:45:33;;;;;;;27.60;11.20;;;6.70;99.90;;;;;;5014334;28;20041;-66
2022/12/01 11:48:14;;;;;;;24.17;9.68;;;6.60;99.90;;;;;;5015239;28;20049;-66
2022/12/01 11:50:41;;;;;;;23.02;10.05;;;6.60;99.90;;;;;;5014309;28;20105;-66
2022/12/01 11:53:27;;;;;;;23.02;9.77;;;6.70;99.90;;;;;;5013052;28;20026;-66
2022/12/01 11:56:15;;;;;;;25.23;10.75;;;6.70;99.90;;;;;;5013664;28;20017;-66
2022/12/01 11:58:43;;;;;;;22.83;9.95;;;6.80;99.90;;;;;;5014484;28;20477;-66
2022/12/01 12:01:26;;;;;;;23.88;9.40;;;6.90;99.90;;;;;;5014294;28;20085;-66
2022/12/01 12:03:55;;;;;;;22.23;8.98;;;6.90;99.90;;;;;;5014722;28;20030;-66
2022/12/01 12:06:29;;;;;;;24.58;9.45;;;6.70;99.90;;;;;;5014478;28;20025;-66
2022/12/01 12:09:23;;;;;;;22.02;9.93;;;6.70;99.90;;;;;;5013355;28;20492;-66
2022/12/01 12:12:10;;;;;;;25.98;10.50;;;6.70;99.90;;;;;;5013066;28;20032;-66
2022/12/01 12:14:58;;;;;;;25.85;10.77;;;6.80;99.90;;;;;;5012926;28;20083;-66
2022/12/01 12:17:48;;;;;;;29.80;10.73;;;6.90;99.90;;;;;;5014450;28;20064;-66
2022/12/01 12:20:31;;;;;;;24.50;11.13;;;6.90;99.90;;;;;;5014105;28;20473;-66
2022/12/01 12:23:15;;;;;;;26.75;10.45;;;6.70;99.90;;;;;;5014097;28;20026;-66
2022/12/01 12:26:16;;;;;;;30.42;11.85;;;6.60;99.90;;;;;;5013951;28;20025;-66
2022/12/01 12:28:54;;;;;;;24.48;10.15;;;6.30;99.90;;;;;;5013897;28;20077;-66
2022/12/01 12:31:28;;;;;;;28.30;10.77;;;6.20;99.90;;;;;;5012985;28;20069;-66
2022/12/01 12:34:03;;;;;;;23.75;10.35;;;6.40;99.90;;;;;;5013430;28;20110;-66
2022/12/01 12:36:50;;;;;;;24.90;11.00;;;6.40;99.90;;;;;;5014115;28;20171;-66
2022/12/01 12:39:38;;;;;;;25.38;10.50;;;6.60;99.90;;;;;;5012860;28;20037;-66
2022/12/01 12:42:33;;;;;;;23.90;9.00;;;6.60;99.90;;;;;;5013092;28;20022;-66
2022/12/01 12:45:17;;;;;;;22.55;9.07;;;6.40;99.90;;;;;;5012313;28;20030;-66
2022/12/01 12:48:15;;;;;;;19.48;9.07;;;6.30;99.90;;;;;;5012355;28;20022;-66
2022/12/01 12:50:51;;;;;;;23.30;9.15;;;6.30;99.90;;;;;;4960419;28;20035;-67
2022/12/01 12:53:22;;;;;;;23.33;9.85;;;6.20;99.90;;;;;;5013633;28;20109;-67
2022/12/01 12:55:50;;;;;;;;;;;6.30;99.90;;;;;;5012821;28;20025;-68
2022/12/01 12:58:28;;;;;;;23.63;8.80;;;6.40;99.90;;;;;;5028881;28;19963;-66
2022/12/01 13:01:00;;;;;;;21.90;9.07;;;6.40;99.90;;;;;;5012444;28;20022;-66
2022/12/01 13:03:48;;;;;;;24.38;9.50;;;6.40;99.90;;;;;;5012303;28;20029;-66